sensor_id;sensor_type;location;lat;lon;timestamp;temperature;humidity
32534;DHT22;18973;48.580;8.912;2023-05-20T00:01:11;12.00;99.90
32534;DHT22;18973;48.580;8.912;2023-05-20T00:03:37;12.00;99.90
32534;DHT22;18973;48.580;8.912;2023-05-20T00:06:03;12.00;99.90
32534;DHT22;18973;48.580;8.912;2023-05-20T00:08:28;12.00;99.90
32534;DHT22;18973;48.580;8.912;2023-05-20T00:10:54;12.10;99.90
32534;DHT22;18973;48.580;8.912;2023-05-20T00:13:20;12.10;99.90
32534;DHT22;18973;48.580;8.912;2023-05-20T00:15:45;12.10;99.90
32534;DHT22;18973;48.580;8.912;2023-05-20T00:18:11;12.10;99.90
32534;DHT22;18973;48.580;8.912;2023-05-20T00:20:37;12.10;99.90
32534;DHT22;18973;48.580;8.912;2023-05-20T00:23:02;12.20;99.90
32534;DHT22;18973;48.580;8.912;2023-05-20T00:25:28;12.20;99.90
32534;DHT22;18973;48.580;8.912;2023-05-20T00:27:55;12.20;99.90
32534;DHT22;18973;48.580;8.912;2023-05-20T00:30:21;12.20;99.90
32534;DHT22;18973;48.580;8.912;2023-05-20T00:32:47;12.10;99.90
32534;DHT22;18973;48.580;8.912;2023-05-20T00:35:12;12.10;99.90
32534;DHT22;18973;48.580;8.912;2023-05-20T00:37:38;12.20;99.90
32534;DHT22;18973;48.580;8.912;2023-05-20T00:40:04;12.20;99.90
32534;DHT22;18973;48.580;8.912;2023-05-20T00:42:30;12.10;99.90
32534;DHT22;18973;48.580;8.912;2023-05-20T00:44:56;12.00;99.90
32534;DHT22;18973;48.580;8.912;2023-05-20T00:47:27;12.00;99.90
32534;DHT22;18973;48.580;8.912;2023-05-20T00:49:54;12.00;99.90
32534;DHT22;18973;48.580;8.912;2023-05-20T00:52:20;12.10;99.90
32534;DHT22;18973;48.580;8.912;2023-05-20T00:54:46;12.10;99.90
32534;DHT22;18973;48.580;8.912;2023-05-20T00:57:14;12.10;99.90
32534;DHT22;18973;48.580;8.912;2023-05-20T00:59:41;12.30;99.90
32534;DHT22;18973;48.580;8.912;2023-05-20T01:02:06;12.30;99.90
32534;DHT22;18973;48.580;8.912;2023-05-20T01:04:32;12.30;99.90
32534;DHT22;18973;48.580;8.912;2023-05-20T01:07:02;12.30;99.90
32534;DHT22;18973;48.580;8.912;2023-05-20T01:09:30;12.20;99.90
32534;DHT22;18973;48.580;8.912;2023-05-20T01:12:15;12.20;99.90
32534;DHT22;18973;48.580;8.912;2023-05-20T01:14:57;12.20;99.90
32534;DHT22;18973;48.580;8.912;2023-05-20T01:17:26;12.20;99.90
32534;DHT22;18973;48.580;8.912;2023-05-20T01:19:54;12.20;99.90
32534;DHT22;18973;48.580;8.912;2023-05-20T01:22:25;12.20;99.90
32534;DHT22;18973;48.580;8.912;2023-05-20T01:24:51;12.20;99.90
32534;DHT22;18973;48.580;8.912;2023-05-20T01:27:21;12.30;99.90
32534;DHT22;18973;48.580;8.912;2023-05-20T01:29:48;12.20;99.90
32534;DHT22;18973;48.580;8.912;2023-05-20T01:32:31;12.20;99.90
32534;DHT22;18973;48.580;8.912;2023-05-20T01:34:57;12.10;99.90
32534;DHT22;18973;48.580;8.912;2023-05-20T01:37:24;12.10;99.90
32534;DHT22;18973;48.580;8.912;2023-05-20T01:39:52;12.10;99.90
32534;DHT22;18973;48.580;8.912;2023-05-20T01:42:19;12.10;99.90
32534;DHT22;18973;48.580;8.912;2023-05-20T01:44:45;12.00;99.90
32534;DHT22;18973;48.580;8.912;2023-05-20T01:47:11;12.10;99.90
32534;DHT22;18973;48.580;8.912;2023-05-20T01:49:37;12.10;99.90
32534;DHT22;18973;48.580;8.912;2023-05-20T01:52:03;12.10;99.90
32534;DHT22;18973;48.580;8.912;2023-05-20T01:54:29;12.10;99.90
32534;DHT22;18973;48.580;8.912;2023-05-20T01:56:55;12.10;99.90
32534;DHT22;18973;48.580;8.912;2023-05-20T01:59:20;12.00;99.90
32534;DHT22;18973;48.580;8.912;2023-05-20T02:01:46;12.10;99.90
32534;DHT22;18973;48.580;8.912;2023-05-20T02:04:12;12.20;99.90
32534;DHT22;18973;48.580;8.912;2023-05-20T02:06:37;12.20;99.90
32534;DHT22;18973;48.580;8.912;2023-05-20T02:09:03;12.10;99.90
32534;DHT22;18973;48.580;8.912;2023-05-20T02:11:29;12.10;99.90
32534;DHT22;18973;48.580;8.912;2023-05-20T02:13:55;12.10;99.90
32534;DHT22;18973;48.580;8.912;2023-05-20T02:16:20;12.10;99.90
32534;DHT22;18973;48.580;8.912;2023-05-20T02:18:46;12.00;99.90
32534;DHT22;18973;48.580;8.912;2023-05-20T02:21:12;12.00;99.90
32534;DHT22;18973;48.580;8.912;2023-05-20T02:23:37;12.00;99.90
32534;DHT22;18973;48.580;8.912;2023-05-20T02:26:04;12.00;99.90
32534;DHT22;18973;48.580;8.912;2023-05-20T02:28:29;12.00;99.90
32534;DHT22;18973;48.580;8.912;2023-05-20T02:30:55;12.00;99.90
32534;DHT22;18973;48.580;8.912;2023-05-20T02:33:21;12.00;99.90
32534;DHT22;18973;48.580;8.912;2023-05-20T02:35:47;12.00;99.90
32534;DHT22;18973;48.580;8.912;2023-05-20T02:38:12;12.00;99.90
32534;DHT22;18973;48.580;8.912;2023-05-20T02:40:38;12.00;99.90
32534;DHT22;18973;48.580;8.912;2023-05-20T02:43:04;11.90;99.90
32534;DHT22;18973;48.580;8.912;2023-05-20T02:45:30;11.90;99.90
32534;DHT22;18973;48.580;8.912;2023-05-20T02:47:55;12.00;99.90
32534;DHT22;18973;48.580;8.912;2023-05-20T02:50:21;12.00;99.90
32534;DHT22;18973;48.580;8.912;2023-05-20T02:52:47;12.00;99.90
32534;DHT22;18973;48.580;8.912;2023-05-20T02:55:13;12.00;99.90
32534;DHT22;18973;48.580;8.912;2023-05-20T02:57:38;12.00;99.90
32534;DHT22;18973;48.580;8.912;2023-05-20T03:00:08;12.10;99.90
32534;DHT22;18973;48.580;8.912;2023-05-20T03:02:37;12.00;99.90
32534;DHT22;18973;48.580;8.912;2023-05-20T03:05:03;12.00;99.90
32534;DHT22;18973;48.580;8.912;2023-05-20T03:07:30;12.00;99.90
32534;DHT22;18973;48.580;8.912;2023-05-20T03:09:56;12.00;99.90
32534;DHT22;18973;48.580;8.912;2023-05-20T03:12:23;11.90;99.90
32534;DHT22;18973;48.580;8.912;2023-05-20T03:14:51;11.90;99.90
32534;DHT22;18973;48.580;8.912;2023-05-20T03:17:22;11.90;99.90
32534;DHT22;18973;48.580;8.912;2023-05-20T03:19:48;12.00;99.90
32534;DHT22;18973;48.580;8.912;2023-05-20T03:22:14;12.00;99.90
32534;DHT22;18973;48.580;8.912;2023-05-20T03:24:39;11.90;99.90
32534;DHT22;18973;48.580;8.912;2023-05-20T03:27:06;11.80;99.90
32534;DHT22;18973;48.580;8.912;2023-05-20T03:29:32;11.80;99.90
32534;DHT22;18973;48.580;8.912;2023-05-20T03:31:58;11.90;99.90
32534;DHT22;18973;48.580;8.912;2023-05-20T03:34:24;11.80;99.90
32534;DHT22;18973;48.580;8.912;2023-05-20T03:36:52;11.80;99.90
32534;DHT22;18973;48.580;8.912;2023-05-20T03:39:17;11.70;99.90
32534;DHT22;18973;48.580;8.912;2023-05-20T03:41:43;11.70;99.90
32534;DHT22;18973;48.580;8.912;2023-05-20T03:44:09;11.70;99.90
32534;DHT22;18973;48.580;8.912;2023-05-20T03:46:34;11.80;99.90
32534;DHT22;18973;48.580;8.912;2023-05-20T03:49:00;11.80;99.90
32534;DHT22;18973;48.580;8.912;2023-05-20T03:51:26;11.80;99.90
32534;DHT22;18973;48.580;8.912;2023-05-20T03:53:52;11.90;99.90
32534;DHT22;18973;48.580;8.912;2023-05-20T03:56:18;11.80;99.90
32534;DHT22;18973;48.580;8.912;2023-05-20T03:58:43;11.80;99.90
32534;DHT22;18973;48.580;8.912;2023-05-20T04:01:09;11.80;99.90
32534;DHT22;18973;48.580;8.912;2023-05-20T04:03:37;11.80;99.90
32534;DHT22;18973;48.580;8.912;2023-05-20T04:06:03;11.70;99.90
32534;DHT22;18973;48.580;8.912;2023-05-20T04:08:29;11.70;99.90
32534;DHT22;18973;48.580;8.912;2023-05-20T04:10:55;11.70;99.90
32534;DHT22;18973;48.580;8.912;2023-05-20T04:13:21;11.70;99.90
32534;DHT22;18973;48.580;8.912;2023-05-20T04:15:50;11.70;99.90
32534;DHT22;18973;48.580;8.912;2023-05-20T04:18:17;11.70;99.90
32534;DHT22;18973;48.580;8.912;2023-05-20T04:20:44;11.70;99.90
32534;DHT22;18973;48.580;8.912;2023-05-20T04:23:09;11.80;99.90
32534;DHT22;18973;48.580;8.912;2023-05-20T04:25:35;11.80;99.90
32534;DHT22;18973;48.580;8.912;2023-05-20T04:28:01;11.80;99.90
32534;DHT22;18973;48.580;8.912;2023-05-20T04:30:26;11.80;99.90
32534;DHT22;18973;48.580;8.912;2023-05-20T04:32:53;11.80;99.90
32534;DHT22;18973;48.580;8.912;2023-05-20T04:35:19;11.80;99.90
32534;DHT22;18973;48.580;8.912;2023-05-20T04:37:44;11.80;99.90
32534;DHT22;18973;48.580;8.912;2023-05-20T04:40:13;11.80;99.90
32534;DHT22;18973;48.580;8.912;2023-05-20T04:42:39;11.80;99.90
32534;DHT22;18973;48.580;8.912;2023-05-20T04:45:05;11.90;99.90
32534;DHT22;18973;48.580;8.912;2023-05-20T04:47:33;11.90;99.90
32534;DHT22;18973;48.580;8.912;2023-05-20T04:50:05;12.00;99.90
32534;DHT22;18973;48.580;8.912;2023-05-20T04:52:35;12.10;99.90
32534;DHT22;18973;48.580;8.912;2023-05-20T04:55:02;12.10;99.90
32534;DHT22;18973;48.580;8.912;2023-05-20T04:57:28;12.10;99.90
32534;DHT22;18973;48.580;8.912;2023-05-20T04:59:53;12.10;99.90
32534;DHT22;18973;48.580;8.912;2023-05-20T05:02:23;12.20;99.90
32534;DHT22;18973;48.580;8.912;2023-05-20T05:04:49;12.10;99.90
32534;DHT22;18973;48.580;8.912;2023-05-20T05:07:15;12.10;99.90
32534;DHT22;18973;48.580;8.912;2023-05-20T05:09:41;12.10;99.90
32534;DHT22;18973;48.580;8.912;2023-05-20T05:12:06;12.10;99.90
32534;DHT22;18973;48.580;8.912;2023-05-20T05:14:32;12.20;99.90
32534;DHT22;18973;48.580;8.912;2023-05-20T05:16:58;12.20;99.90
32534;DHT22;18973;48.580;8.912;2023-05-20T05:19:23;12.20;99.90
32534;DHT22;18973;48.580;8.912;2023-05-20T05:21:49;12.30;99.90
32534;DHT22;18973;48.580;8.912;2023-05-20T05:24:15;12.30;99.90
32534;DHT22;18973;48.580;8.912;2023-05-20T05:26:41;12.30;99.90
32534;DHT22;18973;48.580;8.912;2023-05-20T05:29:07;12.50;99.90
32534;DHT22;18973;48.580;8.912;2023-05-20T05:31:33;12.50;99.90
32534;DHT22;18973;48.580;8.912;2023-05-20T05:33:58;12.60;99.90
32534;DHT22;18973;48.580;8.912;2023-05-20T05:36:24;12.60;99.90
32534;DHT22;18973;48.580;8.912;2023-05-20T05:38:52;12.60;99.90
32534;DHT22;18973;48.580;8.912;2023-05-20T05:41:18;12.70;99.90
32534;DHT22;18973;48.580;8.912;2023-05-20T05:43:44;12.70;99.90
32534;DHT22;18973;48.580;8.912;2023-05-20T05:46:09;12.80;99.90
32534;DHT22;18973;48.580;8.912;2023-05-20T05:48:36;12.90;99.90
32534;DHT22;18973;48.580;8.912;2023-05-20T05:51:01;12.80;99.90
32534;DHT22;18973;48.580;8.912;2023-05-20T05:53:27;12.70;99.90
32534;DHT22;18973;48.580;8.912;2023-05-20T05:55:53;12.70;99.90
32534;DHT22;18973;48.580;8.912;2023-05-20T05:58:18;12.70;99.90
32534;DHT22;18973;48.580;8.912;2023-05-20T06:00:44;12.80;99.90
32534;DHT22;18973;48.580;8.912;2023-05-20T06:03:10;12.90;99.90
32534;DHT22;18973;48.580;8.912;2023-05-20T06:05:36;13.00;99.90
32534;DHT22;18973;48.580;8.912;2023-05-20T06:08:01;13.10;99.90
32534;DHT22;18973;48.580;8.912;2023-05-20T06:10:27;13.10;99.90
32534;DHT22;18973;48.580;8.912;2023-05-20T06:12:53;13.10;99.90
32534;DHT22;18973;48.580;8.912;2023-05-20T06:15:18;13.20;99.90
32534;DHT22;18973;48.580;8.912;2023-05-20T06:17:44;13.10;99.90
32534;DHT22;18973;48.580;8.912;2023-05-20T06:20:10;13.20;99.90
32534;DHT22;18973;48.580;8.912;2023-05-20T06:22:36;13.20;99.90
32534;DHT22;18973;48.580;8.912;2023-05-20T06:25:02;13.20;99.90
32534;DHT22;18973;48.580;8.912;2023-05-20T06:27:28;13.30;99.90
32534;DHT22;18973;48.580;8.912;2023-05-20T06:29:54;13.40;99.90
32534;DHT22;18973;48.580;8.912;2023-05-20T06:32:19;13.60;99.90
32534;DHT22;18973;48.580;8.912;2023-05-20T06:34:45;13.70;99.90
32534;DHT22;18973;48.580;8.912;2023-05-20T06:37:11;13.80;99.90
32534;DHT22;18973;48.580;8.912;2023-05-20T06:39:37;14.00;99.90
32534;DHT22;18973;48.580;8.912;2023-05-20T06:42:02;14.00;99.90
32534;DHT22;18973;48.580;8.912;2023-05-20T06:44:30;14.10;99.90
32534;DHT22;18973;48.580;8.912;2023-05-20T06:46:55;14.10;99.90
32534;DHT22;18973;48.580;8.912;2023-05-20T06:49:21;14.10;99.90
32534;DHT22;18973;48.580;8.912;2023-05-20T06:51:48;14.00;99.90
32534;DHT22;18973;48.580;8.912;2023-05-20T06:54:14;14.00;99.90
32534;DHT22;18973;48.580;8.912;2023-05-20T06:56:39;14.00;99.90
32534;DHT22;18973;48.580;8.912;2023-05-20T06:59:05;14.00;99.90
32534;DHT22;18973;48.580;8.912;2023-05-20T07:01:30;14.00;99.90
32534;DHT22;18973;48.580;8.912;2023-05-20T07:03:56;14.20;99.90
32534;DHT22;18973;48.580;8.912;2023-05-20T07:06:22;14.30;99.90
32534;DHT22;18973;48.580;8.912;2023-05-20T07:08:48;14.50;99.90
32534;DHT22;18973;48.580;8.912;2023-05-20T07:11:14;14.40;99.90
32534;DHT22;18973;48.580;8.912;2023-05-20T07:13:39;14.50;99.90
32534;DHT22;18973;48.580;8.912;2023-05-20T07:16:05;14.50;99.90
32534;DHT22;18973;48.580;8.912;2023-05-20T07:18:31;14.50;99.90
32534;DHT22;18973;48.580;8.912;2023-05-20T07:20:57;14.50;99.90
32534;DHT22;18973;48.580;8.912;2023-05-20T07:23:23;14.40;99.90
32534;DHT22;18973;48.580;8.912;2023-05-20T07:25:48;14.40;99.90
32534;DHT22;18973;48.580;8.912;2023-05-20T07:28:17;14.70;99.90
32534;DHT22;18973;48.580;8.912;2023-05-20T07:30:43;14.70;99.90
32534;DHT22;18973;48.580;8.912;2023-05-20T07:33:15;14.90;99.90
32534;DHT22;18973;48.580;8.912;2023-05-20T07:35:42;14.90;99.90
32534;DHT22;18973;48.580;8.912;2023-05-20T07:38:07;15.00;99.90
32534;DHT22;18973;48.580;8.912;2023-05-20T07:40:33;14.90;99.90
32534;DHT22;18973;48.580;8.912;2023-05-20T07:43:01;14.80;99.90
32534;DHT22;18973;48.580;8.912;2023-05-20T07:45:26;14.90;99.90
32534;DHT22;18973;48.580;8.912;2023-05-20T07:47:52;14.80;99.90
32534;DHT22;18973;48.580;8.912;2023-05-20T07:50:18;14.90;99.90
32534;DHT22;18973;48.580;8.912;2023-05-20T07:52:44;14.80;99.90
32534;DHT22;18973;48.580;8.912;2023-05-20T07:55:09;14.80;99.90
32534;DHT22;18973;48.580;8.912;2023-05-20T07:57:35;14.90;99.90
32534;DHT22;18973;48.580;8.912;2023-05-20T08:00:01;15.10;99.90
32534;DHT22;18973;48.580;8.912;2023-05-20T08:02:27;15.20;99.90
32534;DHT22;18973;48.580;8.912;2023-05-20T08:04:52;15.40;99.90
32534;DHT22;18973;48.580;8.912;2023-05-20T08:07:18;15.50;99.90
32534;DHT22;18973;48.580;8.912;2023-05-20T08:09:44;15.60;99.90
32534;DHT22;18973;48.580;8.912;2023-05-20T08:12:10;15.70;99.90
32534;DHT22;18973;48.580;8.912;2023-05-20T08:14:37;15.70;99.90
32534;DHT22;18973;48.580;8.912;2023-05-20T08:17:02;15.80;99.90
32534;DHT22;18973;48.580;8.912;2023-05-20T08:19:28;15.70;99.90
32534;DHT22;18973;48.580;8.912;2023-05-20T08:21:54;15.70;99.90
32534;DHT22;18973;48.580;8.912;2023-05-20T08:24:19;15.60;99.90
32534;DHT22;18973;48.580;8.912;2023-05-20T08:26:45;15.50;99.90
32534;DHT22;18973;48.580;8.912;2023-05-20T08:29:11;15.60;99.90
32534;DHT22;18973;48.580;8.912;2023-05-20T08:31:37;15.50;99.90
32534;DHT22;18973;48.580;8.912;2023-05-20T08:34:02;15.60;99.90
32534;DHT22;18973;48.580;8.912;2023-05-20T08:36:28;15.50;99.90
32534;DHT22;18973;48.580;8.912;2023-05-20T08:38:54;15.70;99.90
32534;DHT22;18973;48.580;8.912;2023-05-20T08:41:20;15.80;99.90
32534;DHT22;18973;48.580;8.912;2023-05-20T08:43:48;15.90;99.90
32534;DHT22;18973;48.580;8.912;2023-05-20T08:46:14;16.20;99.90
32534;DHT22;18973;48.580;8.912;2023-05-20T08:48:40;16.50;99.90
32534;DHT22;18973;48.580;8.912;2023-05-20T08:51:08;16.30;99.90
32534;DHT22;18973;48.580;8.912;2023-05-20T08:53:33;16.30;99.90
32534;DHT22;18973;48.580;8.912;2023-05-20T08:56:00;16.30;99.90
32534;DHT22;18973;48.580;8.912;2023-05-20T08:58:31;16.50;99.90
32534;DHT22;18973;48.580;8.912;2023-05-20T09:00:59;16.60;99.90
32534;DHT22;18973;48.580;8.912;2023-05-20T09:03:25;16.60;99.90
32534;DHT22;18973;48.580;8.912;2023-05-20T09:06:03;16.90;99.90
32534;DHT22;18973;48.580;8.912;2023-05-20T09:08:29;17.00;99.90
32534;DHT22;18973;48.580;8.912;2023-05-20T09:10:55;16.90;99.90
32534;DHT22;18973;48.580;8.912;2023-05-20T09:13:23;16.90;99.90
32534;DHT22;18973;48.580;8.912;2023-05-20T09:15:50;17.00;99.90
32534;DHT22;18973;48.580;8.912;2023-05-20T09:18:16;17.00;99.90
32534;DHT22;18973;48.580;8.912;2023-05-20T09:20:42;17.20;99.90
32534;DHT22;18973;48.580;8.912;2023-05-20T09:23:08;17.40;99.90
32534;DHT22;18973;48.580;8.912;2023-05-20T09:25:35;17.40;99.90
32534;DHT22;18973;48.580;8.912;2023-05-20T09:28:05;17.40;99.90
32534;DHT22;18973;48.580;8.912;2023-05-20T09:30:32;17.60;99.90
32534;DHT22;18973;48.580;8.912;2023-05-20T09:32:59;17.70;99.90
32534;DHT22;18973;48.580;8.912;2023-05-20T09:35:26;17.60;99.90
32534;DHT22;18973;48.580;8.912;2023-05-20T09:37:54;17.50;99.90
32534;DHT22;18973;48.580;8.912;2023-05-20T09:40:27;17.40;99.90
32534;DHT22;18973;48.580;8.912;2023-05-20T09:43:04;17.50;99.90
32534;DHT22;18973;48.580;8.912;2023-05-20T09:45:31;17.60;99.90
32534;DHT22;18973;48.580;8.912;2023-05-20T09:47:59;17.80;99.90
32534;DHT22;18973;48.580;8.912;2023-05-20T09:50:26;17.80;99.90
32534;DHT22;18973;48.580;8.912;2023-05-20T09:52:54;17.80;99.90
32534;DHT22;18973;48.580;8.912;2023-05-20T09:55:22;18.00;99.90
32534;DHT22;18973;48.580;8.912;2023-05-20T09:57:48;18.10;99.90
32534;DHT22;18973;48.580;8.912;2023-05-20T10:00:14;18.20;99.90
32534;DHT22;18973;48.580;8.912;2023-05-20T10:02:50;18.30;99.90
32534;DHT22;18973;48.580;8.912;2023-05-20T10:05:31;18.30;99.90
32534;DHT22;18973;48.580;8.912;2023-05-20T10:19:31;18.60;99.90
32534;DHT22;18973;48.580;8.912;2023-05-20T10:22:01;18.50;99.90
32534;DHT22;18973;48.580;8.912;2023-05-20T10:26:57;18.20;99.90
32534;DHT22;18973;48.580;8.912;2023-05-20T10:29:24;18.30;99.90
32534;DHT22;18973;48.580;8.912;2023-05-20T10:31:51;18.40;99.90
32534;DHT22;18973;48.580;8.912;2023-05-20T10:34:18;18.60;99.90
32534;DHT22;18973;48.580;8.912;2023-05-20T10:36:46;18.50;99.90
32534;DHT22;18973;48.580;8.912;2023-05-20T10:39:16;18.50;99.90
32534;DHT22;18973;48.580;8.912;2023-05-20T10:41:44;18.80;99.90
32534;DHT22;18973;48.580;8.912;2023-05-20T10:44:10;18.90;99.90
32534;DHT22;18973;48.580;8.912;2023-05-20T10:46:36;19.30;99.90
32534;DHT22;18973;48.580;8.912;2023-05-20T10:49:02;19.60;99.90
32534;DHT22;18973;48.580;8.912;2023-05-20T10:51:29;19.80;99.90
32534;DHT22;18973;48.580;8.912;2023-05-20T10:53:57;20.10;99.90
32534;DHT22;18973;48.580;8.912;2023-05-20T10:56:24;20.40;99.50
32534;DHT22;18973;48.580;8.912;2023-05-20T10:58:54;20.20;98.90
32534;DHT22;18973;48.580;8.912;2023-05-20T11:01:25;20.20;99.30
32534;DHT22;18973;48.580;8.912;2023-05-20T11:03:53;20.30;99.30
32534;DHT22;18973;48.580;8.912;2023-05-20T11:06:18;20.60;98.80
32534;DHT22;18973;48.580;8.912;2023-05-20T11:08:45;20.80;98.00
32534;DHT22;18973;48.580;8.912;2023-05-20T11:11:14;20.90;98.50
32534;DHT22;18973;48.580;8.912;2023-05-20T11:13:40;21.00;97.90
32534;DHT22;18973;48.580;8.912;2023-05-20T11:16:06;21.00;96.10
32534;DHT22;18973;48.580;8.912;2023-05-20T11:18:32;20.70;97.60
32534;DHT22;18973;48.580;8.912;2023-05-20T11:21:01;20.70;97.80
32534;DHT22;18973;48.580;8.912;2023-05-20T11:23:28;20.70;97.50
32534;DHT22;18973;48.580;8.912;2023-05-20T11:25:55;20.80;97.10
32534;DHT22;18973;48.580;8.912;2023-05-20T11:28:21;20.90;97.80
32534;DHT22;18973;48.580;8.912;2023-05-20T11:30:48;21.00;96.90
32534;DHT22;18973;48.580;8.912;2023-05-20T11:33:15;21.10;96.80
32534;DHT22;18973;48.580;8.912;2023-05-20T11:35:50;21.10;96.70
32534;DHT22;18973;48.580;8.912;2023-05-20T11:38:16;20.80;97.00
32534;DHT22;18973;48.580;8.912;2023-05-20T11:40:50;20.80;97.20
32534;DHT22;18973;48.580;8.912;2023-05-20T11:43:16;20.80;98.00
32534;DHT22;18973;48.580;8.912;2023-05-20T11:45:43;20.80;97.10
32534;DHT22;18973;48.580;8.912;2023-05-20T11:48:10;20.70;97.40
32534;DHT22;18973;48.580;8.912;2023-05-20T11:50:43;20.80;97.60
32534;DHT22;18973;48.580;8.912;2023-05-20T11:53:21;21.10;97.90
32534;DHT22;18973;48.580;8.912;2023-05-20T11:55:57;21.50;98.00
32534;DHT22;18973;48.580;8.912;2023-05-20T11:58:25;21.50;97.00
32534;DHT22;18973;48.580;8.912;2023-05-20T12:00:51;21.30;97.00
32534;DHT22;18973;48.580;8.912;2023-05-20T12:03:17;21.40;98.10
32534;DHT22;18973;48.580;8.912;2023-05-20T12:05:43;21.60;97.80
32534;DHT22;18973;48.580;8.912;2023-05-20T12:08:09;21.90;96.90
32534;DHT22;18973;48.580;8.912;2023-05-20T12:10:35;22.20;96.70
32534;DHT22;18973;48.580;8.912;2023-05-20T12:13:04;21.90;95.30
32534;DHT22;18973;48.580;8.912;2023-05-20T12:15:34;21.70;96.20
32534;DHT22;18973;48.580;8.912;2023-05-20T12:18:00;21.80;95.70
32534;DHT22;18973;48.580;8.912;2023-05-20T12:20:26;21.60;95.30
32534;DHT22;18973;48.580;8.912;2023-05-20T12:22:51;21.70;95.10
32534;DHT22;18973;48.580;8.912;2023-05-20T12:25:18;21.70;94.50
32534;DHT22;18973;48.580;8.912;2023-05-20T12:27:46;21.40;94.80
32534;DHT22;18973;48.580;8.912;2023-05-20T12:30:15;21.40;95.90
32534;DHT22;18973;48.580;8.912;2023-05-20T12:32:41;21.70;95.20
32534;DHT22;18973;48.580;8.912;2023-05-20T12:35:08;21.80;95.20
32534;DHT22;18973;48.580;8.912;2023-05-20T12:37:35;21.70;94.50
32534;DHT22;18973;48.580;8.912;2023-05-20T12:40:01;22.10;96.30
32534;DHT22;18973;48.580;8.912;2023-05-20T12:42:41;22.50;93.60
32534;DHT22;18973;48.580;8.912;2023-05-20T12:45:07;22.60;93.60
32534;DHT22;18973;48.580;8.912;2023-05-20T12:47:34;22.40;93.10
32534;DHT22;18973;48.580;8.912;2023-05-20T12:50:01;22.20;92.60
32534;DHT22;18973;48.580;8.912;2023-05-20T12:52:27;21.90;93.80
32534;DHT22;18973;48.580;8.912;2023-05-20T12:54:53;22.00;93.90
32534;DHT22;18973;48.580;8.912;2023-05-20T12:57:20;21.90;94.20
32534;DHT22;18973;48.580;8.912;2023-05-20T12:59:46;21.80;94.10
32534;DHT22;18973;48.580;8.912;2023-05-20T13:02:12;21.80;93.90
32534;DHT22;18973;48.580;8.912;2023-05-20T13:04:37;22.10;94.10
32534;DHT22;18973;48.580;8.912;2023-05-20T13:07:03;22.30;93.30
32534;DHT22;18973;48.580;8.912;2023-05-20T13:09:29;22.40;93.60
32534;DHT22;18973;48.580;8.912;2023-05-20T13:11:55;22.20;93.60
32534;DHT22;18973;48.580;8.912;2023-05-20T13:14:20;22.00;93.00
32534;DHT22;18973;48.580;8.912;2023-05-20T13:16:50;22.00;93.50
32534;DHT22;18973;48.580;8.912;2023-05-20T13:19:20;22.20;93.80
32534;DHT22;18973;48.580;8.912;2023-05-20T13:21:48;22.20;92.90
32534;DHT22;18973;48.580;8.912;2023-05-20T13:24:14;22.20;93.60
32534;DHT22;18973;48.580;8.912;2023-05-20T13:26:39;22.10;92.90
32534;DHT22;18973;48.580;8.912;2023-05-20T13:29:05;22.20;93.80
32534;DHT22;18973;48.580;8.912;2023-05-20T13:31:31;22.30;92.60
32534;DHT22;18973;48.580;8.912;2023-05-20T13:33:57;22.40;93.10
32534;DHT22;18973;48.580;8.912;2023-05-20T13:36:25;22.50;93.10
32534;DHT22;18973;48.580;8.912;2023-05-20T13:38:51;22.20;91.80
32534;DHT22;18973;48.580;8.912;2023-05-20T13:41:17;22.30;92.70
32534;DHT22;18973;48.580;8.912;2023-05-20T13:43:43;22.40;92.10
32534;DHT22;18973;48.580;8.912;2023-05-20T13:46:09;22.70;92.40
32534;DHT22;18973;48.580;8.912;2023-05-20T13:48:34;22.80;91.40
32534;DHT22;18973;48.580;8.912;2023-05-20T13:51:00;23.00;91.60
32534;DHT22;18973;48.580;8.912;2023-05-20T13:53:26;22.70;90.90
32534;DHT22;18973;48.580;8.912;2023-05-20T13:55:52;22.50;91.10
32534;DHT22;18973;48.580;8.912;2023-05-20T13:58:18;22.50;91.40
32534;DHT22;18973;48.580;8.912;2023-05-20T14:00:44;22.60;91.40
32534;DHT22;18973;48.580;8.912;2023-05-20T14:03:10;22.70;91.70
32534;DHT22;18973;48.580;8.912;2023-05-20T14:05:36;22.80;90.90
32534;DHT22;18973;48.580;8.912;2023-05-20T14:08:02;22.80;90.00
32534;DHT22;18973;48.580;8.912;2023-05-20T14:10:28;22.90;91.10
32534;DHT22;18973;48.580;8.912;2023-05-20T14:12:56;22.80;90.90
32534;DHT22;18973;48.580;8.912;2023-05-20T14:15:21;22.80;90.40
32534;DHT22;18973;48.580;8.912;2023-05-20T14:17:47;22.80;91.30
32534;DHT22;18973;48.580;8.912;2023-05-20T14:20:13;22.80;91.20
32534;DHT22;18973;48.580;8.912;2023-05-20T14:22:39;22.80;91.60
32534;DHT22;18973;48.580;8.912;2023-05-20T14:25:05;22.90;91.50
32534;DHT22;18973;48.580;8.912;2023-05-20T14:27:31;22.70;90.30
32534;DHT22;18973;48.580;8.912;2023-05-20T14:29:57;22.60;90.30
32534;DHT22;18973;48.580;8.912;2023-05-20T14:32:22;22.50;90.40
32534;DHT22;18973;48.580;8.912;2023-05-20T14:34:48;22.60;90.90
32534;DHT22;18973;48.580;8.912;2023-05-20T14:37:14;22.50;90.60
32534;DHT22;18973;48.580;8.912;2023-05-20T14:39:40;22.50;90.50
32534;DHT22;18973;48.580;8.912;2023-05-20T14:42:06;22.60;90.60
32534;DHT22;18973;48.580;8.912;2023-05-20T14:44:31;22.60;90.00
32534;DHT22;18973;48.580;8.912;2023-05-20T14:46:57;22.50;90.10
32534;DHT22;18973;48.580;8.912;2023-05-20T14:49:23;22.40;90.60
32534;DHT22;18973;48.580;8.912;2023-05-20T14:51:49;22.40;90.60
32534;DHT22;18973;48.580;8.912;2023-05-20T14:54:15;22.50;90.90
32534;DHT22;18973;48.580;8.912;2023-05-20T14:56:44;22.70;91.20
32534;DHT22;18973;48.580;8.912;2023-05-20T14:59:09;22.70;90.60
32534;DHT22;18973;48.580;8.912;2023-05-20T15:01:35;22.70;91.30
32534;DHT22;18973;48.580;8.912;2023-05-20T15:04:02;22.80;91.00
32534;DHT22;18973;48.580;8.912;2023-05-20T15:06:28;22.60;91.10
32534;DHT22;18973;48.580;8.912;2023-05-20T15:08:55;22.70;90.70
32534;DHT22;18973;48.580;8.912;2023-05-20T15:11:21;22.80;90.90
32534;DHT22;18973;48.580;8.912;2023-05-20T15:13:46;22.90;90.50
32534;DHT22;18973;48.580;8.912;2023-05-20T15:16:12;22.80;90.60
32534;DHT22;18973;48.580;8.912;2023-05-20T15:18:38;22.80;90.50
32534;DHT22;18973;48.580;8.912;2023-05-20T15:21:04;22.90;90.50
32534;DHT22;18973;48.580;8.912;2023-05-20T15:23:30;22.90;90.10
32534;DHT22;18973;48.580;8.912;2023-05-20T15:25:56;22.60;90.10
32534;DHT22;18973;48.580;8.912;2023-05-20T15:28:24;22.50;90.70
32534;DHT22;18973;48.580;8.912;2023-05-20T15:30:53;22.60;90.50
32534;DHT22;18973;48.580;8.912;2023-05-20T15:33:19;22.80;90.40
32534;DHT22;18973;48.580;8.912;2023-05-20T15:35:45;22.90;90.20
32534;DHT22;18973;48.580;8.912;2023-05-20T15:38:12;23.00;89.80
32534;DHT22;18973;48.580;8.912;2023-05-20T15:40:38;23.00;88.90